createdAt,value
2023-04-19T00:02:25.498Z,10.24
2023-04-19T00:04:53.179Z,10.23
2023-04-19T00:07:20.334Z,10.15
2023-04-19T00:09:46.890Z,10.12
2023-04-19T00:12:13.343Z,10.15
2023-04-19T00:14:39.707Z,10.24
2023-04-19T00:17:06.194Z,10.30
2023-04-19T00:19:32.840Z,10.27
2023-04-19T00:21:59.255Z,10.25
2023-04-19T00:24:25.717Z,10.27
2023-04-19T00:26:52.174Z,10.32
2023-04-19T00:29:18.575Z,10.35
2023-04-19T00:31:44.943Z,10.31
2023-04-19T00:34:11.414Z,10.21
2023-04-19T00:36:37.857Z,10.16
2023-04-19T00:39:04.314Z,10.18
2023-04-19T00:41:30.687Z,10.16
2023-04-19T00:43:57.267Z,10.20
2023-04-19T00:46:24.425Z,10.20
2023-04-19T00:48:51.313Z,10.22
2023-04-19T00:51:18.063Z,10.20
2023-04-19T00:53:44.585Z,10.20
2023-04-19T00:56:11.534Z,10.14
2023-04-19T00:58:39.251Z,10.10
2023-04-19T01:01:06.206Z,10.12
2023-04-19T01:03:34.764Z,10.15
2023-04-19T01:06:01.713Z,10.05
2023-04-19T01:08:28.092Z,9.98
2023-04-19T01:10:54.519Z,9.97
2023-04-19T01:13:20.906Z,9.93
2023-04-19T01:15:48.475Z,9.91
2023-04-19T01:18:14.916Z,9.95
2023-04-19T01:20:42.551Z,9.90
2023-04-19T01:23:11.492Z,9.94
2023-04-19T01:25:38.741Z,9.93
2023-04-19T01:28:05.867Z,9.90
2023-04-19T01:30:32.750Z,9.87
2023-04-19T01:32:59.294Z,9.85
2023-04-19T01:35:26.019Z,9.81
2023-04-19T01:37:55.416Z,9.79
2023-04-19T01:40:25.747Z,9.77
2023-04-19T01:42:52.748Z,9.75
2023-04-19T01:45:19.372Z,9.75
2023-04-19T01:47:45.858Z,9.73
2023-04-19T01:50:12.256Z,9.80
2023-04-19T01:52:38.717Z,9.83
2023-04-19T01:55:05.537Z,9.78
2023-04-19T01:57:32.053Z,9.77
2023-04-19T01:59:58.495Z,9.69
2023-04-19T02:02:25.089Z,9.63
2023-04-19T02:04:51.638Z,9.57
2023-04-19T02:07:18.051Z,9.62
2023-04-19T02:09:44.409Z,9.64
2023-04-19T02:12:11.898Z,9.63
2023-04-19T02:14:38.390Z,9.59
2023-04-19T02:17:04.786Z,9.50
2023-04-19T02:19:31.901Z,9.43
2023-04-19T02:21:58.817Z,9.47
2023-04-19T02:24:25.422Z,9.51
2023-04-19T02:26:52.204Z,9.58
2023-04-19T02:29:19.010Z,9.63
2023-04-19T02:31:46.288Z,9.59
2023-04-19T02:34:13.014Z,9.62
2023-04-19T02:36:39.527Z,9.59
2023-04-19T02:39:05.995Z,9.52
2023-04-19T02:41:32.383Z,9.48
2023-04-19T02:44:01.457Z,9.50
2023-04-19T02:46:27.976Z,9.57
2023-04-19T02:48:54.423Z,9.60
2023-04-19T02:51:20.844Z,9.69
2023-04-19T02:53:47.347Z,9.69
2023-04-19T02:56:13.905Z,9.65
2023-04-19T02:58:40.399Z,9.64
2023-04-19T03:01:07.132Z,9.62
2023-04-19T03:03:33.879Z,9.60
2023-04-19T03:06:00.377Z,9.62
2023-04-19T03:08:27.800Z,9.52
2023-04-19T03:10:54.733Z,9.53
2023-04-19T03:13:21.086Z,9.50
2023-04-19T03:15:48.548Z,9.54
2023-04-19T03:18:17.176Z,9.60
2023-04-19T03:20:43.794Z,9.60
2023-04-19T03:23:10.773Z,9.54
2023-04-19T03:25:37.178Z,9.50
2023-04-19T03:28:17.815Z,9.54
2023-04-19T03:31:02.900Z,9.62
2023-04-19T03:33:29.465Z,9.66
2023-04-19T03:35:56.219Z,9.59
2023-04-19T03:38:23.439Z,9.51
2023-04-19T03:40:50.566Z,9.46
2023-04-19T03:43:18.429Z,9.49
2023-04-19T03:45:44.953Z,9.47
2023-04-19T03:48:11.935Z,9.53
2023-04-19T03:50:38.695Z,9.57
2023-04-19T03:53:08.023Z,9.56
2023-04-19T03:55:34.510Z,9.51
2023-04-19T03:58:02.111Z,9.46
2023-04-19T04:00:47.096Z,9.46
2023-04-19T04:03:15.044Z,9.43
2023-04-19T04:05:41.732Z,9.45
2023-04-19T04:08:09.253Z,9.48
2023-04-19T04:10:35.786Z,9.45
2023-04-19T04:13:02.285Z,9.36
2023-04-19T04:15:38.902Z,9.33
2023-04-19T04:18:08.994Z,9.29
2023-04-19T04:20:36.537Z,9.27
2023-04-19T04:23:07.425Z,9.22
2023-04-19T04:25:37.349Z,9.20
2023-04-19T04:28:06.914Z,9.18
2023-04-19T04:30:34.228Z,9.14
2023-04-19T04:33:01.796Z,9.18
2023-04-19T04:35:30.054Z,9.24
2023-04-19T04:38:14.087Z,9.22
2023-04-19T04:40:55.896Z,9.15
2023-04-19T04:43:24.440Z,9.13
2023-04-19T04:45:51.897Z,9.11
2023-04-19T04:48:18.916Z,9.07
2023-04-19T04:50:45.366Z,9.06
2023-04-19T04:53:14.706Z,9.04
2023-04-19T04:55:43.502Z,9.03
2023-04-19T04:58:11.651Z,9.06
2023-04-19T05:00:58.480Z,8.90
2023-04-19T05:03:27.344Z,8.90
2023-04-19T05:05:57.652Z,8.88
2023-04-19T05:08:27.255Z,8.95
2023-04-19T05:10:58.368Z,8.86
2023-04-19T05:13:28.610Z,8.84
2023-04-19T05:15:55.615Z,8.82
2023-04-19T05:18:24.165Z,8.87
2023-04-19T05:20:50.646Z,8.83
2023-04-19T05:23:21.746Z,8.91
2023-04-19T05:25:50.413Z,8.96
2023-04-19T05:28:17.419Z,8.93
2023-04-19T05:30:58.679Z,8.89
2023-04-19T05:33:30.268Z,8.89
2023-04-19T05:35:57.391Z,8.86
2023-04-19T05:38:23.844Z,8.83
2023-04-19T05:40:50.440Z,8.80
2023-04-19T05:43:16.883Z,8.87
2023-04-19T05:45:43.481Z,8.85
2023-04-19T05:48:09.997Z,8.88
2023-04-19T05:50:56.168Z,9.03
2023-04-19T05:53:41.462Z,9.06
2023-04-19T05:56:07.947Z,9.09
2023-04-19T05:58:34.395Z,9.22
2023-04-19T06:01:00.932Z,9.42
2023-04-19T06:03:29.962Z,9.51
2023-04-19T06:05:58.985Z,9.59
2023-04-19T06:08:25.657Z,9.55
2023-04-19T06:11:00.197Z,9.54
2023-04-19T06:13:31.658Z,9.54
2023-04-19T06:15:58.226Z,9.60
2023-04-19T06:18:24.646Z,9.72
2023-04-19T06:20:53.103Z,9.80
2023-04-19T06:23:19.543Z,9.84
2023-04-19T06:25:48.533Z,9.87
2023-04-19T06:28:15.147Z,10.01
2023-04-19T06:30:41.574Z,10.09
2023-04-19T06:33:08.063Z,10.04
2023-04-19T06:35:34.465Z,9.86
2023-04-19T06:38:00.867Z,9.84
2023-04-19T06:40:28.920Z,9.84
2023-04-19T06:42:55.637Z,9.79
2023-04-19T06:45:22.743Z,9.78
2023-04-19T06:47:49.237Z,9.83
2023-04-19T06:50:15.640Z,9.98
2023-04-19T06:52:42.298Z,9.97
2023-04-19T06:55:09.519Z,9.89
2023-04-19T06:57:35.927Z,9.85
2023-04-19T07:00:04.335Z,9.97
2023-04-19T07:02:30.892Z,10.07
2023-04-19T07:04:57.378Z,10.27
2023-04-19T07:07:23.738Z,10.23
2023-04-19T07:09:50.176Z,10.29
2023-04-19T07:12:16.681Z,10.32
2023-04-19T07:14:43.152Z,10.26
2023-04-19T07:17:09.562Z,10.28
2023-04-19T07:19:36.359Z,10.29
2023-04-19T07:22:03.386Z,10.30
2023-04-19T07:24:30.368Z,10.24
2023-04-19T07:26:57.517Z,10.23
2023-04-19T07:29:23.929Z,10.27
2023-04-19T07:31:50.403Z,10.25
2023-04-19T07:34:17.123Z,10.33
2023-04-19T07:36:43.871Z,10.43
2023-04-19T07:39:10.397Z,10.51
2023-04-19T07:41:36.845Z,10.40
2023-04-19T07:44:03.286Z,10.41
2023-04-19T07:46:30.127Z,10.63
2023-04-19T07:48:56.567Z,10.77
2023-04-19T07:51:24.945Z,10.88
2023-04-19T07:53:51.513Z,11.03
2023-04-19T07:56:19.595Z,11.03
2023-04-19T07:58:50.800Z,11.09
2023-04-19T08:01:23.306Z,11.16
2023-04-19T08:03:50.039Z,11.24
2023-04-19T08:06:17.760Z,11.11
2023-04-19T08:08:44.201Z,11.11
2023-04-19T08:11:10.608Z,11.16
2023-04-19T08:13:37.114Z,11.12
2023-04-19T08:16:40.342Z,11.30
2023-04-19T08:18:51.919Z,11.43
2023-04-19T08:21:18.577Z,11.39
2023-04-19T08:23:50.320Z,11.36
2023-04-19T08:26:18.426Z,11.34
2023-04-19T08:28:44.805Z,11.42
2023-04-19T08:31:11.334Z,11.47
2023-04-19T08:33:37.752Z,11.49
2023-04-19T08:36:04.193Z,11.44
2023-04-19T08:38:30.710Z,11.57
2023-04-19T08:40:57.182Z,11.77
2023-04-19T08:43:25.989Z,11.87
2023-04-19T08:45:53.694Z,11.88
2023-04-19T08:48:22.165Z,12.01
2023-04-19T08:51:04.485Z,12.09
2023-04-19T08:53:35.522Z,11.98
2023-04-19T08:58:50.269Z,12.33
2023-04-19T09:01:30.894Z,12.33
2023-04-19T09:04:16.171Z,12.36
2023-04-19T09:06:47.261Z,12.30
2023-04-19T09:09:55.430Z,12.30
2023-04-19T09:12:28.735Z,12.44
2023-04-19T09:15:01.981Z,12.61
2023-04-19T09:17:29.399Z,12.72
2023-04-19T09:19:55.970Z,12.82
2023-04-19T09:22:22.535Z,13.00
2023-04-19T09:27:30.911Z,13.08
2023-04-19T09:29:59.646Z,13.18
2023-04-19T09:32:27.308Z,13.21
2023-04-19T09:34:58.792Z,13.30
2023-04-19T09:39:56.072Z,13.15
2023-04-19T09:42:42.193Z,13.22
2023-04-19T09:47:38.880Z,13.60
2023-04-19T09:50:19.230Z,13.64
2023-04-19T09:52:50.167Z,13.59
2023-04-19T09:55:26.954Z,13.53
2023-04-19T09:57:55.276Z,13.41
2023-04-19T10:00:22.739Z,13.40
2023-04-19T10:02:55.813Z,13.46
2023-04-19T10:05:24.553Z,13.53
2023-04-19T10:07:56.476Z,13.62
2023-04-19T10:10:32.985Z,13.70
2023-04-19T10:13:19.133Z,13.81
2023-04-19T10:15:53.599Z,13.72
2023-04-19T10:18:24.479Z,13.67
2023-04-19T10:21:06.576Z,13.65
2023-04-19T10:23:33.674Z,13.69
2023-04-19T10:26:00.092Z,13.70
2023-04-19T10:28:30.669Z,13.63
2023-04-19T10:31:02.576Z,13.54
2023-04-19T10:33:35.802Z,13.61
2023-04-19T10:36:02.763Z,13.63
2023-04-19T10:38:39.366Z,13.68
2023-04-19T10:41:13.600Z,13.70
2023-04-19T10:43:47.504Z,13.84
2023-04-19T10:46:24.482Z,14.00
2023-04-19T10:48:59.430Z,14.08
2023-04-19T10:51:28.933Z,13.99
2023-04-19T10:54:00.089Z,13.86
2023-04-19T10:56:35.624Z,13.97
2023-04-19T10:59:02.340Z,14.11
2023-04-19T11:01:43.087Z,14.30
2023-04-19T11:04:23.956Z,14.49
2023-04-19T11:06:50.462Z,14.54
2023-04-19T11:09:27.054Z,14.46
2023-04-19T11:11:57.271Z,14.37
2023-04-19T11:14:25.080Z,14.35
2023-04-19T11:16:51.564Z,14.30
2023-04-19T11:19:21.295Z,14.47
2023-04-19T11:21:48.826Z,14.54
2023-04-19T11:24:18.640Z,14.50
2023-04-19T11:26:46.070Z,14.63
2023-04-19T11:29:12.937Z,14.61
2023-04-19T11:31:39.584Z,14.59
2023-04-19T11:34:06.337Z,14.55
2023-04-19T11:36:33.873Z,14.55
2023-04-19T11:39:00.423Z,14.62
2023-04-19T11:41:26.809Z,14.71
2023-04-19T11:43:53.320Z,14.55
2023-04-19T11:46:19.889Z,14.70
2023-04-19T11:48:52.267Z,14.85
2023-04-19T11:51:19.102Z,14.87
2023-04-19T11:53:46.095Z,14.71
2023-04-19T11:56:12.531Z,14.63
2023-04-19T11:58:44.350Z,14.66
2023-04-19T12:01:13.169Z,14.77
2023-04-19T12:03:48.027Z,14.80
2023-04-19T12:06:28.679Z,14.96
2023-04-19T12:08:56.974Z,15.13
2023-04-19T12:11:26.593Z,15.02
2023-04-19T12:14:13.547Z,15.13
2023-04-19T12:16:40.347Z,15.17
2023-04-19T12:19:17.906Z,15.12
2023-04-19T12:21:45.919Z,14.93
2023-04-19T12:24:15.521Z,14.95
2023-04-19T12:26:56.790Z,14.88
2023-04-19T12:29:23.365Z,14.94
2023-04-19T12:31:49.861Z,15.10
2023-04-19T12:34:16.317Z,14.96
2023-04-19T12:36:42.771Z,14.93
2023-04-19T12:39:09.141Z,15.00
2023-04-19T12:41:35.513Z,14.99
2023-04-19T12:44:01.903Z,15.09
2023-04-19T12:46:29.314Z,15.22
2023-04-19T12:48:55.780Z,15.16
2023-04-19T12:51:22.243Z,15.16
2023-04-19T12:53:49.354Z,15.21
2023-04-19T12:56:17.148Z,15.31
2023-04-19T12:58:43.601Z,15.44
2023-04-19T13:01:10.862Z,15.41
2023-04-19T13:03:37.645Z,15.10
2023-04-19T13:06:05.755Z,15.02
2023-04-19T13:08:44.291Z,14.90
2023-04-19T13:11:12.966Z,14.88
2023-04-19T13:13:39.417Z,15.03
2023-04-19T13:16:07.721Z,15.04
2023-04-19T13:18:34.260Z,14.83
2023-04-19T13:21:00.666Z,14.82
2023-04-19T13:23:27.098Z,14.94
2023-04-19T13:25:53.547Z,14.99
2023-04-19T13:28:19.916Z,15.11
2023-04-19T13:30:46.385Z,15.15
2023-04-19T13:33:12.778Z,15.24
2023-04-19T13:35:39.164Z,15.26
2023-04-19T13:38:05.566Z,15.14
2023-04-19T13:40:32.038Z,15.12
2023-04-19T13:42:58.489Z,15.32
2023-04-19T13:45:24.948Z,15.43
2023-04-19T13:47:51.487Z,15.51
2023-04-19T13:50:17.931Z,15.44
2023-04-19T13:52:44.323Z,15.40
2023-04-19T13:55:10.760Z,15.27
2023-04-19T13:57:37.340Z,15.34
2023-04-19T14:00:04.142Z,15.41
2023-04-19T14:02:34.059Z,15.35
2023-04-19T14:05:00.744Z,15.28
2023-04-19T14:07:27.225Z,15.15
2023-04-19T14:09:53.627Z,15.04
2023-04-19T14:12:20.549Z,15.03
2023-04-19T14:14:46.934Z,15.06
2023-04-19T14:17:13.326Z,15.15
2023-04-19T14:19:39.770Z,15.22
2023-04-19T14:22:06.262Z,15.15
2023-04-19T14:24:32.869Z,15.05
2023-04-19T14:27:10.224Z,15.07
2023-04-19T14:29:38.069Z,15.16
2023-04-19T14:32:17.199Z,15.15
2023-04-19T14:34:51.736Z,14.96
2023-04-19T14:37:19.101Z,14.91
2023-04-19T14:39:46.017Z,14.93
2023-04-19T14:42:12.545Z,14.96
2023-04-19T14:44:39.094Z,14.92
2023-04-19T14:47:05.527Z,14.86
2023-04-19T14:49:31.975Z,14.79
2023-04-19T14:51:58.441Z,14.84
2023-04-19T14:54:24.850Z,14.81
2023-04-19T14:56:52.571Z,14.77
2023-04-19T14:59:19.016Z,14.70
2023-04-19T15:01:45.571Z,14.79
2023-04-19T15:04:12.156Z,14.84
2023-04-19T15:06:38.688Z,14.89
2023-04-19T15:09:05.286Z,14.89
2023-04-19T15:11:31.813Z,14.72
2023-04-19T15:13:58.181Z,14.64
2023-04-19T15:16:24.733Z,14.58
2023-04-19T15:18:52.086Z,14.63
2023-04-19T15:21:24.346Z,14.52
2023-04-19T15:23:51.072Z,14.40
2023-04-19T15:26:17.455Z,14.25
2023-04-19T15:28:44.040Z,14.17
2023-04-19T15:31:10.601Z,14.31
2023-04-19T15:33:37.830Z,14.35
2023-04-19T15:36:05.043Z,14.37
2023-04-19T15:38:32.353Z,14.45
2023-04-19T15:41:00.429Z,14.51
2023-04-19T15:43:26.972Z,14.40
2023-04-19T15:45:53.484Z,14.16
2023-04-19T15:48:23.207Z,14.06
2023-04-19T15:50:49.815Z,14.12
2023-04-19T15:53:16.593Z,14.15
2023-04-19T15:55:43.216Z,14.01
2023-04-19T15:58:09.659Z,13.85
2023-04-19T16:00:36.152Z,13.78
2023-04-19T16:03:02.862Z,13.84
2023-04-19T16:05:29.442Z,13.89
2023-04-19T16:08:07.152Z,13.99
2023-04-19T16:10:33.727Z,13.84
2023-04-19T16:13:01.324Z,13.78
2023-04-19T16:15:28.486Z,13.74
2023-04-19T16:17:55.113Z,13.72
2023-04-19T16:20:23.640Z,13.69
2023-04-19T16:22:50.125Z,13.74
2023-04-19T16:25:16.837Z,13.78
2023-04-19T16:27:44.510Z,13.74
2023-04-19T16:30:12.040Z,13.66
2023-04-19T16:32:38.831Z,13.53
2023-04-19T16:35:06.349Z,13.49
2023-04-19T16:37:33.262Z,13.58
2023-04-19T16:40:03.311Z,13.66
2023-04-19T16:42:29.750Z,13.67
2023-04-19T16:44:56.137Z,13.52
2023-04-19T16:47:22.609Z,13.40
2023-04-19T16:49:50.428Z,13.30
2023-04-19T16:52:17.396Z,13.38
2023-04-19T16:54:44.713Z,13.34
2023-04-19T16:57:11.489Z,13.35
2023-04-19T16:59:37.919Z,13.35
2023-04-19T17:02:04.613Z,13.28
2023-04-19T17:04:32.356Z,13.19
2023-04-19T17:06:58.989Z,13.18
2023-04-19T17:09:25.409Z,13.14
2023-04-19T17:11:51.841Z,13.16
2023-04-19T17:14:18.470Z,13.22
2023-04-19T17:16:44.961Z,13.17
2023-04-19T17:19:11.394Z,13.09
2023-04-19T17:21:38.171Z,13.03
2023-04-19T17:24:05.653Z,12.95
2023-04-19T17:26:32.046Z,13.02
2023-04-19T17:28:59.914Z,12.98
2023-04-19T17:31:28.436Z,12.92
2023-04-19T17:33:54.886Z,12.96
2023-04-19T17:36:21.520Z,12.97
2023-04-19T17:38:48.114Z,12.91
2023-04-19T17:41:17.116Z,12.76
2023-04-19T17:43:44.125Z,12.73
2023-04-19T17:46:11.879Z,12.69
2023-04-19T17:48:38.871Z,12.65
2023-04-19T17:51:05.387Z,12.65
2023-04-19T17:53:31.926Z,12.59
2023-04-19T17:55:58.916Z,12.52
2023-04-19T17:58:25.292Z,12.51
2023-04-19T18:00:51.709Z,12.36
2023-04-19T18:03:18.253Z,12.31
2023-04-19T18:05:44.769Z,12.31
2023-04-19T18:08:13.229Z,12.25
2023-04-19T18:10:39.656Z,12.22
2023-04-19T18:13:06.092Z,12.19
2023-04-19T18:15:32.558Z,12.13
2023-04-19T18:17:59.003Z,12.15
2023-04-19T18:20:25.702Z,12.10
2023-04-19T18:22:53.721Z,12.04
2023-04-19T18:25:20.139Z,12.01
2023-04-19T18:27:46.569Z,12.01
2023-04-19T18:30:13.170Z,11.87
2023-04-19T18:32:39.639Z,11.83
2023-04-19T18:35:09.786Z,11.79
2023-04-19T18:37:36.260Z,11.81
2023-04-19T18:40:06.871Z,11.83
2023-04-19T18:42:33.357Z,11.82
2023-04-19T18:44:59.770Z,11.87
2023-04-19T18:47:26.693Z,11.90
2023-04-19T18:50:04.427Z,11.85
2023-04-19T18:52:33.936Z,11.77
2023-04-19T18:55:00.712Z,11.77
2023-04-19T18:57:28.001Z,11.74
2023-04-19T18:59:57.718Z,11.74
2023-04-19T19:02:24.780Z,11.66
2023-04-19T19:04:57.743Z,11.62
2023-04-19T19:07:36.209Z,11.65
2023-04-19T19:10:17.280Z,11.65
2023-04-19T19:12:46.179Z,11.55
2023-04-19T19:15:13.531Z,11.48
2023-04-19T19:17:40.035Z,11.46
2023-04-19T19:20:07.337Z,11.61
2023-04-19T19:22:34.978Z,11.59
2023-04-19T19:25:01.423Z,11.62
2023-04-19T19:27:27.991Z,11.55
2023-04-19T19:29:54.631Z,11.48
2023-04-19T19:32:21.222Z,11.44
2023-04-19T19:37:17.554Z,11.41
2023-04-19T19:39:44.876Z,11.34
2023-04-19T19:42:16.373Z,11.26
2023-04-19T19:44:43.262Z,11.27
2023-04-19T19:47:10.761Z,11.36
2023-04-19T19:52:07.219Z,11.30
2023-04-19T19:54:33.747Z,11.30
2023-04-19T19:57:48.360Z,11.28
2023-04-19T19:59:52.681Z,11.16
2023-04-19T20:02:22.754Z,11.20
2023-04-19T20:04:50.009Z,11.22
2023-04-19T20:09:46.099Z,11.14
2023-04-19T20:12:13.436Z,11.14
2023-04-19T20:14:40.523Z,11.18
2023-04-19T20:17:07.422Z,11.21
2023-04-19T20:19:33.948Z,11.22
2023-04-19T20:22:00.744Z,11.17
2023-04-19T20:24:27.509Z,11.06
2023-04-19T20:26:53.903Z,11.06
2023-04-19T20:29:20.302Z,11.10
2023-04-19T20:31:46.714Z,11.11
2023-04-19T20:34:13.157Z,11.12
2023-04-19T20:36:40.381Z,11.16
2023-04-19T20:39:09.614Z,11.22
2023-04-19T20:41:36.379Z,11.20
2023-04-19T20:44:03.040Z,11.17
2023-04-19T20:46:29.625Z,11.18
2023-04-19T20:48:56.270Z,11.20
2023-04-19T20:51:22.710Z,11.12
2023-04-19T20:53:49.131Z,11.08
2023-04-19T20:56:15.550Z,10.96
2023-04-19T20:58:41.926Z,11.00
2023-04-19T21:01:08.562Z,11.00
2023-04-19T21:03:35.283Z,10.96
2023-04-19T21:06:01.803Z,10.93
2023-04-19T21:08:28.197Z,10.96
2023-04-19T21:10:54.783Z,10.93
2023-04-19T21:13:21.165Z,10.86
2023-04-19T21:15:47.575Z,10.83
2023-04-19T21:18:14.020Z,10.77
2023-04-19T21:20:40.541Z,10.71
2023-04-19T21:23:06.976Z,10.76
2023-04-19T21:25:33.384Z,10.81
2023-04-19T21:27:59.825Z,10.75
2023-04-19T21:30:26.327Z,10.70
2023-04-19T21:32:52.952Z,10.67
2023-04-19T21:35:19.755Z,10.59
2023-04-19T21:37:46.222Z,10.57
2023-04-19T21:40:12.900Z,10.51
2023-04-19T21:42:39.338Z,10.54
2023-04-19T21:45:06.418Z,10.54
2023-04-19T21:47:32.890Z,10.53
2023-04-19T21:49:59.325Z,10.57
2023-04-19T21:52:25.783Z,10.57
2023-04-19T21:54:52.198Z,10.53
2023-04-19T21:57:21.844Z,10.40
2023-04-19T21:59:48.254Z,10.38
2023-04-19T22:02:14.803Z,10.37
2023-04-19T22:04:41.603Z,10.35
2023-04-19T22:07:09.792Z,10.37
2023-04-19T22:09:36.254Z,10.36
2023-04-19T22:12:03.561Z,10.46
2023-04-19T22:14:30.641Z,10.34
2023-04-19T22:16:57.456Z,10.31
2023-04-19T22:19:24.781Z,10.23
2023-04-19T22:21:51.372Z,10.13
2023-04-19T22:24:17.865Z,10.04
2023-04-19T22:26:44.256Z,10.06
2023-04-19T22:29:10.887Z,9.96
2023-04-19T22:31:37.285Z,9.94
2023-04-19T22:34:03.662Z,9.89
2023-04-19T22:36:30.448Z,9.91
2023-04-19T22:38:56.805Z,9.91
2023-04-19T22:41:23.216Z,9.93
2023-04-19T22:43:49.687Z,9.88
2023-04-19T22:46:16.178Z,9.89
2023-04-19T22:48:42.583Z,9.94
2023-04-19T22:51:09.397Z,9.95
2023-04-19T22:53:37.251Z,9.94
2023-04-19T22:56:04.238Z,9.97
2023-04-19T22:58:30.664Z,9.99
2023-04-19T23:00:57.059Z,9.97
2023-04-19T23:03:24.168Z,9.92
2023-04-19T23:05:50.667Z,9.93
2023-04-19T23:08:17.443Z,9.96
2023-04-19T23:10:45.173Z,10.01
2023-04-19T23:13:11.968Z,9.98
2023-04-19T23:15:39.240Z,9.94
2023-04-19T23:18:05.702Z,9.88
2023-04-19T23:20:32.259Z,9.90
2023-04-19T23:22:59.108Z,9.93
2023-04-19T23:25:25.652Z,9.96
2023-04-19T23:27:52.067Z,10.00
2023-04-19T23:30:19.291Z,9.95
2023-04-19T23:32:45.894Z,9.89
2023-04-19T23:35:12.462Z,9.89
2023-04-19T23:37:39.351Z,9.87
2023-04-19T23:40:06.736Z,9.89
2023-04-19T23:42:33.398Z,9.91
2023-04-19T23:44:59.750Z,9.96
2023-04-19T23:47:26.322Z,9.97
2023-04-19T23:49:52.754Z,9.99
2023-04-19T23:52:22.505Z,10.00
2023-04-19T23:54:49.431Z,9.99
2023-04-19T23:57:16.009Z,10.07
2023-04-19T23:59:42.378Z,10.08
